Time;durP1;ratioP1;P1;durP2;ratioP2;P2;SDS_P1;SDS_P2;PMS_P1;PMS_P2;Temp;Humidity;BMP_temperature;BMP_pressure;BME280_temperature;BME280_humidity;BME280_pressure;Samples;Min_cycle;Max_cycle;Signal;HPM_P1;HPM_P2
2022/08/25 00:00:52;;;;;;;8.90;5.70;;;;;;;21.20;75.68;101328.28;1679222;82;141259;-77
2022/08/25 00:03:37;;;;;;;12.85;7.12;;;;;;;21.18;75.50;101331.91;1679897;84;21027;-77
2022/08/25 00:06:23;;;;;;;21.00;7.40;;;;;;;21.15;75.52;101335.08;1684299;84;21096;-77
2022/08/25 00:09:13;;;;;;;9.70;5.72;;;;;;;21.12;75.56;101333.91;1674967;84;21036;-77
2022/08/25 00:11:58;;;;;;;10.55;6.10;;;;;;;21.12;75.62;101334.38;1683646;83;21082;-77
2022/08/25 00:14:43;;;;;;;17.55;7.17;;;;;;;21.10;75.65;101329.19;1685974;84;21532;-77
2022/08/25 00:17:29;;;;;;;17.25;6.95;;;;;;;21.08;75.68;101319.21;1679888;84;21131;-77
2022/08/25 00:20:14;;;;;;;12.07;6.72;;;;;;;21.08;75.77;101315.73;1682188;83;21623;-77
2022/08/25 00:23:00;;;;;;;12.63;6.53;;;;;;;21.08;75.80;101313.09;1681939;84;21060;-77
2022/08/25 00:25:45;;;;;;;15.60;6.67;;;;;;;21.07;75.80;101308.30;1673980;84;21122;-78
2022/08/25 00:28:30;;;;;;;11.65;6.83;;;;;;;21.07;75.85;101310.93;1691490;84;21095;-78
2022/08/25 00:31:19;;;;;;;15.05;6.58;;;;;;;21.08;75.88;101311.32;1676879;84;21072;-77
2022/08/25 00:34:06;;;;;;;18.57;7.12;;;;;;;21.08;75.90;101308.69;1677837;84;20977;-77
2022/08/25 00:36:53;;;;;;;14.80;6.90;;;;;;;21.07;75.90;101304.36;1677906;84;20916;-77
2022/08/25 00:39:38;;;;;;;11.10;6.40;;;;;;;21.08;75.98;101303.89;1686580;84;20965;-77
2022/08/25 00:42:24;;;;;;;14.90;6.78;;;;;;;21.08;76.01;101303.43;1660382;84;20909;-78
2022/08/25 00:45:09;;;;;;;14.10;6.78;;;;;;;21.07;76.02;101303.04;1689107;84;20980;-78
2022/08/25 00:47:55;;;;;;;13.40;6.67;;;;;;;21.07;76.07;101305.67;1676063;84;21509;-78
2022/08/25 00:50:39;;;;;;;15.43;6.90;;;;;;;21.05;76.09;101306.20;1692381;84;20957;-78
2022/08/25 00:53:24;;;;;;;9.38;6.12;;;;;;;21.03;76.11;101303.27;1694402;84;20909;-78
2022/08/25 00:56:11;;;;;;;11.68;6.37;;;;;;;21.01;76.14;101299.86;1683893;84;20937;-78
2022/08/25 00:58:58;;;;;;;15.95;7.08;;;;;;;21.01;76.20;101301.17;1693525;83;21001;-78
2022/08/25 01:01:43;;;;;;;11.12;6.62;;;;;;;21.00;76.22;101297.69;1692186;84;21552;-78
2022/08/25 01:04:28;;;;;;;15.58;7.33;;;;;;;20.99;76.24;101292.04;1653655;86;21680;-78
2022/08/25 01:07:16;;;;;;;13.62;6.58;;;;;;;20.98;76.28;101299.54;1659702;86;21087;-78
2022/08/25 01:10:03;;;;;;;11.80;6.53;;;;;;;20.96;76.33;101295.28;1641371;86;21665;-78
2022/08/25 01:12:51;;;;;;;12.37;7.42;;;;;;;20.95;76.37;101301.00;1646109;84;21118;-78
2022/08/25 01:15:36;;;;;;;12.28;6.60;;;;;;;20.91;76.37;101306.48;1660768;85;21127;-77
2022/08/25 01:18:22;;;;;;;10.25;6.35;;;;;;;20.85;76.41;101312.88;1664490;85;21492;-77
2022/08/25 01:21:07;;;;;;;11.43;6.87;;;;;;;20.75;76.47;101323.01;1647473;85;21120;-77
2022/08/25 01:23:54;;;;;;;16.02;7.97;;;;;;;20.72;76.57;101318.36;1660787;86;21045;-77
2022/08/25 01:26:39;;;;;;;16.20;7.20;;;;;;;20.72;76.62;101320.98;1662882;84;21148;-77
2022/08/25 01:29:24;;;;;;;10.50;6.70;;;;;;;20.70;76.64;101315.80;1644570;86;21136;-77
2022/08/25 01:32:13;;;;;;;15.25;7.33;;;;;;;20.69;76.64;101318.50;1663088;86;21078;-78
2022/08/25 01:34:59;;;;;;;15.53;8.35;;;;;;;20.69;76.71;101321.13;1635279;86;21572;-77
2022/08/25 01:37:44;;;;;;;11.97;7.37;;;;;;;20.69;76.74;101327.70;1649931;86;21140;-77
2022/08/25 01:40:30;;;;;;;17.10;7.20;;;;;;;20.67;76.73;101325.14;1635327;86;21077;-77
2022/08/25 01:43:33;;;;;;;;;;;;;;;20.64;76.75;101333.17;1658595;85;21068;-77
2022/08/25 01:46:18;;;;;;;19.07;7.25;;;;;;;20.63;77.04;101331.92;1652027;83;20185;-77
2022/08/25 01:49:04;;;;;;;14.60;8.38;;;;;;;20.61;76.82;101339.02;1690746;83;21935;-78
2022/08/25 01:51:54;;;;;;;12.75;7.97;;;;;;;20.47;76.86;101365.92;1669687;84;21079;-78
2022/08/25 01:54:39;;;;;;;11.75;8.10;;;;;;;20.42;76.99;101346.89;1670165;84;21066;-78
2022/08/25 01:57:24;;;;;;;12.70;7.90;;;;;;;20.40;77.03;101353.53;1659227;85;21108;-78
2022/08/25 02:00:13;;;;;;;10.13;7.87;;;;;;;20.39;77.07;101345.25;1663796;86;21105;-77
2022/08/25 02:02:58;;;;;;;16.07;8.38;;;;;;;20.42;77.13;101354.31;1643529;86;21024;-77
2022/08/25 02:05:43;;;;;;;15.10;8.75;;;;;;;20.45;77.14;101342.35;1651786;86;21022;-77
2022/08/25 02:08:28;;;;;;;13.60;8.80;;;;;;;20.46;77.14;101346.69;1652462;85;21092;-77
2022/08/25 02:11:14;;;;;;;16.80;9.30;;;;;;;20.46;77.23;101337.48;1653208;85;21045;-77
2022/08/25 02:13:59;;;;;;;19.23;9.80;;;;;;;20.48;77.30;101341.36;1662381;86;21057;-77
2022/08/25 02:16:49;;;;;;;18.02;9.30;;;;;;;20.52;77.32;101340.77;1639889;86;25362;-78
2022/08/25 02:19:34;;;;;;;14.23;9.83;;;;;;;20.55;77.37;101341.94;1668379;84;21051;-78
2022/08/25 02:22:20;;;;;;;18.52;9.53;;;;;;;20.58;77.40;101342.65;1680389;85;21120;-77
2022/08/25 02:25:07;;;;;;;17.82;11.20;;;;;;;20.61;77.43;101335.09;1678106;85;21048;-78
2022/08/25 02:27:52;;;;;;;21.55;10.43;;;;;;;20.62;77.51;101335.02;1679150;85;20952;-78
2022/08/25 02:30:40;;;;;;;18.07;10.95;;;;;;;20.65;77.50;101332.24;1680416;85;20944;-78
2022/08/25 02:33:25;;;;;;;16.32;10.53;;;;;;;20.67;77.53;101326.92;1680670;84;21005;-77
2022/08/25 02:36:11;;;;;;;14.73;9.95;;;;;;;20.69;77.61;101319.81;1666907;85;21041;-77
2022/08/25 02:38:56;;;;;;;15.95;10.30;;;;;;;20.70;77.61;101324.15;1671781;85;21099;-77
2022/08/25 02:41:42;;;;;;;19.20;10.28;;;;;;;20.70;77.64;101314.95;1664652;84;21077;-77
2022/08/25 02:44:27;;;;;;;15.20;10.65;;;;;;;20.73;77.70;101323.55;1683601;85;21035;-78
2022/08/25 02:47:12;;;;;;;20.72;11.45;;;;;;;20.75;77.73;101313.81;1683821;85;21124;-78
2022/08/25 02:49:57;;;;;;;18.27;11.88;;;;;;;20.76;77.79;101307.63;1680996;85;21068;-78
2022/08/25 02:52:42;;;;;;;20.00;11.33;;;;;;;20.77;77.80;101304.54;1683811;84;22248;-77
2022/08/25 02:55:27;;;;;;;16.48;11.63;;;;;;;20.77;77.88;101308.48;1673957;83;20991;-77
2022/08/25 02:58:14;;;;;;;31.93;11.75;;;;;;;20.80;77.92;101306.53;1684440;85;21080;-77
2022/08/25 03:00:59;;;;;;;17.85;11.45;;;;;;;20.81;77.93;101305.60;1672846;84;21081;-77
2022/08/25 03:03:47;;;;;;;18.67;11.15;;;;;;;20.83;77.96;101302.91;1645832;85;21145;-77
2022/08/25 03:06:32;;;;;;;18.00;10.75;;;;;;;20.85;78.00;101306.77;1637823;87;21533;-77
2022/08/25 03:09:17;;;;;;;18.52;11.12;;;;;;;20.87;78.04;101304.92;1666450;85;21390;-77
2022/08/25 03:12:03;;;;;;;19.77;10.55;;;;;;;20.87;78.08;101308.41;1689752;84;21024;-77
2022/08/25 03:14:49;;;;;;;18.10;10.82;;;;;;;20.89;78.09;101306.55;1672328;85;21063;-77
2022/08/25 03:17:34;;;;;;;23.38;11.30;;;;;;;20.89;78.16;101304.39;1683914;85;21116;-77
2022/08/25 03:20:22;;;;;;;20.57;10.93;;;;;;;20.90;78.17;101299.05;1684770;83;21057;-77
2022/08/25 03:23:07;;;;;;;19.98;11.90;;;;;;;20.91;78.19;101302.08;1650840;85;21343;-77
2022/08/25 03:29:04;;;;;;;19.45;11.75;;;;;;;20.91;78.29;101299.91;1607919;86;21094;-77
2022/08/25 03:31:51;;;;;;;18.12;10.82;;;;;;;20.92;78.31;101303.78;1607725;87;21084;-77
2022/08/25 03:34:36;;;;;;;19.48;11.38;;;;;;;20.91;78.33;101298.13;1635123;85;21544;-77
2022/08/25 03:37:21;;;;;;;18.82;10.55;;;;;;;20.93;78.35;101302.85;1614294;86;21128;-77
2022/08/25 03:40:11;;;;;;;14.10;10.30;;;;;;;20.93;78.35;101298.05;1599026;87;21165;-78
2022/08/25 03:42:56;;;;;;;16.02;10.72;;;;;;;20.93;78.41;101298.91;1632571;86;21140;-78
2022/08/25 03:45:43;;;;;;;15.90;10.35;;;;;;;20.95;78.44;101297.05;1627704;84;21079;-78
2022/08/25 03:48:28;;;;;;;20.02;10.98;;;;;;;;;;1630312;86;20929;-78
2022/08/25 03:51:24;;;;;;;23.05;11.43;;;;;;;;;;1625098;86;20951;-78
2022/08/25 03:54:10;;;;;;;;;;;;;;;20.97;78.51;101294.36;1597101;87;20943;-78
2022/08/25 03:56:54;;;;;;;19.33;10.63;;;;;;;20.98;78.75;101295.59;1610009;87;20345;-78
2022/08/25 03:59:39;;;;;;;15.75;10.53;;;;;;;20.96;78.58;101289.56;1603691;87;21363;-78
2022/08/25 04:02:25;;;;;;;23.85;10.85;;;;;;;20.97;78.60;101294.36;1620517;88;21356;-78
2022/08/25 04:05:10;;;;;;;19.77;11.30;;;;;;;20.98;78.60;101303.48;1619107;86;21928;-78
2022/08/25 04:07:55;;;;;;;18.05;11.00;;;;;;;20.99;78.64;101299.08;1626237;86;20993;-78
2022/08/25 04:10:40;;;;;;;20.90;11.38;;;;;;;20.98;78.67;101303.48;1646109;86;20958;-78
2022/08/25 04:13:25;;;;;;;25.80;11.83;;;;;;;20.97;78.69;101307.50;1619510;87;20941;-78
2022/08/25 04:16:17;;;;;;;20.72;11.70;;;;;;;20.99;78.74;101310.45;1655528;84;20957;-78
2022/08/25 04:19:06;;;;;;;19.12;11.93;;;;;;;20.99;78.74;101305.19;1657306;84;20970;-78
2022/08/25 04:21:52;;;;;;;21.55;11.78;;;;;;;21.01;78.78;101314.31;1630431;85;21847;-78
2022/08/25 04:24:37;;;;;;;16.17;11.80;;;;;;;21.04;78.79;101316.80;1645481;86;21140;-77
2022/08/25 04:27:22;;;;;;;16.32;12.35;;;;;;;21.04;78.80;101312.39;1651305;85;21160;-77
2022/08/25 04:30:09;;;;;;;23.22;13.08;;;;;;;21.04;78.84;101314.17;1652266;85;21024;-77
2022/08/25 04:32:54;;;;;;;16.35;10.72;;;;;;;21.05;78.86;101318.50;1636043;85;21130;-77
2022/08/25 04:35:40;;;;;;;19.25;13.18;;;;;;;21.05;78.90;101311.93;1634477;86;21078;-77
2022/08/25 04:38:26;;;;;;;18.43;11.60;;;;;;;21.06;78.92;101319.75;1648199;86;21556;-77
2022/08/25 04:41:14;;;;;;;23.27;12.33;;;;;;;21.06;78.94;101320.20;1646034;86;21091;-77
2022/08/25 04:44:00;;;;;;;17.00;12.28;;;;;;;21.06;79.00;101315.80;1623573;86;21076;-77
2022/08/25 04:46:45;;;;;;;20.37;11.55;;;;;;;21.09;78.99;101324.00;1627783;87;21536;-77
2022/08/25 04:49:30;;;;;;;23.98;11.25;;;;;;;21.11;79.00;101325.64;1643935;85;21105;-78
2022/08/25 04:52:16;;;;;;;23.53;11.63;;;;;;;21.11;79.01;101326.95;1642906;86;21592;-78
2022/08/25 04:55:01;;;;;;;27.00;11.78;;;;;;;21.14;79.06;101320.69;1667341;85;21106;-77
2022/08/25 04:57:46;;;;;;;19.52;11.25;;;;;;;21.16;79.04;101322.78;1620120;87;21109;-77
2022/08/25 05:00:34;;;;;;;14.93;10.78;;;;;;;21.18;79.07;101319.62;1610821;86;21551;-77
2022/08/25 05:03:20;;;;;;;20.97;11.57;;;;;;;21.20;79.09;101320.39;1618449;87;20989;-77
2022/08/25 05:06:06;;;;;;;16.02;10.20;;;;;;;21.22;79.09;101316.41;1636352;87;21418;-78
2022/08/25 05:08:51;;;;;;;22.90;11.28;;;;;;;21.24;79.12;101319.35;1649318;85;21077;-78
2022/08/25 05:11:37;;;;;;;15.13;9.27;;;;;;;21.26;79.15;101325.39;1613679;86;21115;-78
2022/08/25 05:14:24;;;;;;;16.67;9.30;;;;;;;21.29;79.21;101323.07;1634946;87;21073;-78
2022/08/25 05:17:09;;;;;;;16.15;8.63;;;;;;;21.33;79.18;101329.85;1621875;87;21079;-77
2022/08/25 05:19:54;;;;;;;16.85;8.63;;;;;;;21.36;79.19;101325.30;1639822;86;21136;-77
2022/08/25 05:22:39;;;;;;;14.20;9.13;;;;;;;21.38;79.19;101322.13;1692535;83;21061;-77
2022/08/25 05:25:24;;;;;;;17.50;8.55;;;;;;;21.42;79.19;101329.40;1676501;84;21068;-77
2022/08/25 05:28:10;;;;;;;13.03;8.65;;;;;;;21.43;79.18;101331.95;1674754;84;21069;-78
2022/08/25 05:30:59;;;;;;;17.40;8.18;;;;;;;21.45;79.23;101330.09;1695423;82;20980;-78
2022/08/25 05:33:44;;;;;;;15.55;8.00;;;;;;;21.50;79.25;101332.97;1689672;83;21003;-78
2022/08/25 05:36:29;;;;;;;16.80;7.75;;;;;;;21.52;79.24;101330.64;1695199;84;21615;-77
2022/08/25 05:39:15;;;;;;;20.68;8.33;;;;;;;21.54;79.26;101330.57;1684447;84;22158;-77
2022/08/25 05:42:00;;;;;;;15.60;7.77;;;;;;;21.58;79.25;101327.70;1685928;84;21021;-77
2022/08/25 05:44:45;;;;;;;23.70;8.50;;;;;;;21.59;79.23;101321.52;1657910;85;21124;-78
2022/08/25 05:47:31;;;;;;;17.52;8.00;;;;;;;21.62;79.28;101325.31;1659671;86;21777;-76
2022/08/25 05:50:18;;;;;;;19.15;8.03;;;;;;;21.65;79.27;101325.16;1657239;86;22337;-76
2022/08/25 05:53:03;;;;;;;16.73;7.40;;;;;;;21.68;79.25;101328.09;1649489;85;21128;-76
2022/08/25 05:55:50;;;;;;;16.82;8.20;;;;;;;21.69;79.22;101323.22;1653336;85;21080;-78
2022/08/25 05:58:37;;;;;;;15.20;8.08;;;;;;;21.70;79.28;101327.09;1643744;86;21084;-78
2022/08/25 06:04:29;;;;;;;14.03;7.10;;;;;;;21.75;79.24;101323.76;1685235;83;21397;-78
2022/08/25 06:07:14;;;;;;;12.10;7.47;;;;;;;21.76;79.26;101331.19;1698258;82;20908;-78
2022/08/25 06:09:59;;;;;;;15.40;7.85;;;;;;;21.79;79.26;101329.72;1699460;82;20925;-77
2022/08/25 06:12:45;;;;;;;14.85;7.05;;;;;;;21.82;79.26;101326.93;1691671;82;20975;-77
2022/08/25 06:15:30;;;;;;;17.52;8.00;;;;;;;21.86;79.25;101330.22;1700110;82;20904;-77
2022/08/25 06:18:15;;;;;;;15.08;6.95;;;;;;;21.90;79.25;101335.72;1684922;82;21051;-78
2022/08/25 06:21:13;;;;;;;14.75;7.58;;;;;;;21.92;79.28;101332.08;1684624;82;21055;-78
2022/08/25 06:23:58;;;;;;;16.93;7.58;;;;;;;21.99;79.28;101332.14;1686419;83;21056;-78
2022/08/25 06:26:43;;;;;;;10.98;7.08;;;;;;;22.06;79.24;101341.93;1693082;83;21584;-78
2022/08/25 06:29:29;;;;;;;18.10;7.03;;;;;;;22.13;79.22;101334.95;1659780;84;21702;-78
2022/08/25 06:32:14;;;;;;;13.50;7.15;;;;;;;22.20;79.23;101331.98;1665373;84;21075;-78
2022/08/25 06:34:59;;;;;;;11.97;7.17;;;;;;;22.29;79.28;101331.03;1651318;84;21097;-78
2022/08/25 06:37:44;;;;;;;13.75;6.45;;;;;;;22.38;79.21;101336.25;1691818;83;22298;-77
2022/08/25 06:40:29;;;;;;;12.37;6.67;;;;;;;22.44;79.19;101328.86;1692273;83;21079;-78
2022/08/25 06:43:15;;;;;;;13.68;6.35;;;;;;;22.55;79.13;101334.87;1692774;83;21592;-77
2022/08/25 06:46:22;;;;;;;13.28;6.30;;;;;;;22.64;78.98;101334.84;1689654;83;21075;-77
2022/08/25 06:49:07;;;;;;;15.05;5.80;;;;;;;22.69;79.11;101338.92;1685270;83;21092;-77
2022/08/25 06:51:52;;;;;;;14.93;6.65;;;;;;;22.82;79.04;101339.14;1664730;84;21028;-77
2022/08/25 06:54:38;;;;;;;14.73;6.10;;;;;;;22.90;79.02;101341.31;1689176;83;21084;-77
2022/08/25 06:57:23;;;;;;;13.95;6.50;;;;;;;22.95;78.92;101339.27;1698988;83;21439;-76
2022/08/25 07:00:12;;;;;;;15.10;6.20;;;;;;;23.02;78.92;101344.12;1680386;83;21507;-76
2022/08/25 07:02:59;;;;;;;13.62;6.53;;;;;;;23.10;78.90;101345.86;1699057;83;21406;-76
2022/08/25 07:05:53;;;;;;;13.80;6.12;;;;;;;23.47;79.23;101344.19;1688565;83;20913;-78
2022/08/25 07:08:38;;;;;;;12.90;6.08;;;;;;;24.02;78.94;101341.78;1686000;83;20968;-77
2022/08/25 07:11:24;;;;;;;16.70;6.20;;;;;;;24.29;78.63;101344.09;1692878;83;20968;-77
2022/08/25 07:14:12;;;;;;;10.90;5.60;;;;;;;24.46;78.55;101335.56;1690571;83;20916;-78
2022/08/25 07:16:57;;;;;;;16.82;6.08;;;;;;;24.56;78.42;101336.22;1689356;83;21027;-77
2022/08/25 07:19:42;;;;;;;14.65;5.62;;;;;;;25.01;78.79;101327.62;1693973;83;21351;-77
2022/08/25 07:22:27;;;;;;;13.65;5.55;;;;;;;25.37;78.19;101336.27;1695749;82;21652;-77
2022/08/25 07:25:12;;;;;;;10.90;6.17;;;;;;;25.38;77.88;101336.64;1699366;82;21065;-77
2022/08/25 07:27:58;;;;;;;10.93;5.75;;;;;;;25.25;77.79;101337.08;1704851;82;21071;-77
2022/08/25 07:30:43;;;;;;;11.38;5.70;;;;;;;25.09;77.70;101330.61;1697540;82;21081;-77
2022/08/25 07:33:28;;;;;;;13.30;5.70;;;;;;;24.92;77.67;101307.05;1694274;82;21065;-77
2022/08/25 07:36:13;;;;;;;13.70;5.42;;;;;;;25.07;77.48;101341.77;1700617;82;21073;-77
2022/08/25 07:39:02;;;;;;;9.78;5.05;;;;;;;25.16;77.60;101337.68;1711153;82;21108;-77
2022/08/25 07:41:46;;;;;;;15.93;6.20;;;;;;;25.50;77.60;101330.97;1695129;82;21366;-77
2022/08/25 07:44:31;;;;;;;12.10;5.53;;;;;;;25.69;77.34;101336.29;1659183;84;21550;-77
2022/08/25 07:47:16;;;;;;;19.20;5.50;;;;;;;25.90;76.95;101338.43;1659288;84;21162;-78
2022/08/25 07:50:01;;;;;;;19.02;5.62;;;;;;;25.93;76.84;101330.27;1663100;84;21149;-76
2022/08/25 07:52:48;;;;;;;9.18;5.35;;;;;;;25.83;76.60;101334.50;1666853;83;21041;-78
2022/08/25 07:55:35;;;;;;;12.85;4.92;;;;;;;25.77;76.61;101321.20;1653078;84;21064;-81
2022/08/25 07:58:20;;;;;;;8.70;5.00;;;;;;;25.88;76.41;101331.06;1711765;82;21064;-82
2022/08/25 08:01:06;;;;;;;5.50;4.42;;;;;;;25.94;76.09;101331.49;1694391;82;21048;-81
2022/08/25 08:03:52;;;;;;;10.05;5.33;;;;;;;25.79;75.91;101313.14;1700963;82;21072;-81
2022/08/25 08:06:39;;;;;;;8.60;5.03;;;;;;;25.94;75.83;101329.32;1696838;82;21559;-81
2022/08/25 08:09:24;;;;;;;10.98;4.97;;;;;;;25.98;75.59;101334.30;1696613;82;21127;-81
2022/08/25 08:12:10;;;;;;;10.03;4.97;;;;;;;25.90;75.39;101339.28;1700065;82;21672;-78
2022/08/25 08:14:57;;;;;;;13.03;5.08;;;;;;;25.96;75.45;101330.91;1662675;84;21783;-77
2022/08/25 08:17:42;;;;;;;10.28;5.58;;;;;;;26.31;75.44;101327.61;1668644;83;21416;-79
2022/08/25 08:20:28;;;;;;;7.05;4.55;;;;;;;26.56;75.15;101327.53;1663781;84;21119;-78
2022/08/25 08:23:14;;;;;;;10.25;4.62;;;;;;;26.66;74.91;101337.86;1656002;83;20988;-78
2022/08/25 08:25:59;;;;;;;11.10;4.53;;;;;;;26.66;74.56;101336.53;1636275;85;21399;-78
2022/08/25 08:28:44;;;;;;;9.85;4.72;;;;;;;26.56;74.54;101335.97;1648975;84;21600;-76
2022/08/25 08:31:29;;;;;;;11.00;4.97;;;;;;;26.52;74.44;101342.45;1651963;85;21547;-76
2022/08/25 08:34:15;;;;;;;9.20;4.95;;;;;;;26.44;74.32;101332.89;1647797;84;20953;-76
2022/08/25 08:37:00;;;;;;;8.28;4.70;;;;;;;26.54;74.17;101341.38;1642248;84;20958;-76
2022/08/25 08:39:45;;;;;;;13.18;5.58;;;;;;;26.64;73.78;101340.25;1642877;85;21572;-76
2022/08/25 08:43:08;;;;;;;10.68;5.08;;;;;;;26.58;73.69;101338.88;1642853;84;20986;-76
2022/08/25 08:45:53;;;;;;;10.23;4.78;;;;;;;26.48;73.36;101341.00;1649363;85;20985;-76
2022/08/25 08:48:49;;;;;;;10.85;4.62;;;;;;;26.36;73.27;101337.41;1648923;85;20974;-76
2022/08/25 08:51:46;;;;;;;11.57;4.62;;;;;;;26.29;73.16;101332.14;1647498;84;21782;-75
2022/08/25 08:54:35;;;;;;;12.43;4.87;;;;;;;26.22;73.00;101330.39;1646379;84;20946;-73
2022/08/25 08:57:24;;;;;;;9.03;5.22;;;;;;;26.13;72.78;101329.71;1638422;86;21037;-73
2022/08/25 09:00:10;;;;;;;17.92;4.75;;;;;;;26.08;72.66;101323.88;1632433;86;21107;-73
2022/08/25 09:03:00;;;;;;;8.90;4.78;;;;;;;25.99;72.50;101322.75;1655623;85;20930;-74
2022/08/25 09:05:50;;;;;;;12.37;5.00;;;;;;;25.93;72.32;101323.65;1646940;84;20961;-73
2022/08/25 09:08:37;;;;;;;8.58;4.45;;;;;;;25.89;72.21;101323.02;1657671;84;21049;-72
2022/08/25 09:11:28;;;;;;;17.02;5.00;;;;;;;25.84;72.12;101319.83;1646405;85;21600;-72
2022/08/25 09:14:56;;;;;;;13.55;4.87;;;;;;;25.76;71.91;101316.00;1636542;84;21100;-73
2022/08/25 09:18:11;;;;;;;15.50;5.53;;;;;;;25.79;71.95;101307.37;1651840;84;21079;-73
2022/08/25 09:21:10;;;;;;;13.20;5.33;;;;;;;25.86;71.73;101310.45;1646656;84;21088;-73
2022/08/25 09:24:16;;;;;;;13.95;5.67;;;;;;;25.87;71.49;101305.52;1617049;86;21112;-73
2022/08/25 09:27:09;;;;;;;11.93;5.70;;;;;;;25.90;71.43;101310.12;1627156;86;21167;-73
2022/08/25 09:30:05;;;;;;;8.98;4.70;;;;;;;25.94;71.28;101306.80;1612676;86;21116;-72
2022/08/25 09:33:00;;;;;;;14.78;5.40;;;;;;;25.97;71.16;101306.58;1633812;86;21077;-73
2022/08/25 09:35:42;;;;;;;10.35;5.17;;;;;;;26.03;71.09;101300.82;1622090;86;21138;-73
2022/08/25 09:38:30;;;;;;;14.53;5.15;;;;;;;26.10;71.06;101302.09;1625826;86;21130;-75
2022/08/25 09:41:35;;;;;;;9.35;4.92;;;;;;;26.19;70.81;101297.47;1662116;84;21641;-73
2022/08/25 09:44:42;;;;;;;10.95;5.42;;;;;;;26.22;70.64;101303.88;1655976;84;21099;-73
2022/08/25 09:47:26;;;;;;;19.23;6.40;;;;;;;26.22;70.65;101299.91;1656524;85;21705;-72
2022/08/25 09:50:18;;;;;;;12.55;5.28;;;;;;;26.24;70.57;101291.36;1652363;85;21078;-73
2022/08/25 09:53:16;;;;;;;13.62;5.75;;;;;;;26.22;70.21;101292.43;1651704;85;21082;-72
2022/08/25 09:56:05;;;;;;;14.23;4.78;;;;;;;26.18;70.14;101285.17;1653437;85;22195;-73
2022/08/25 09:58:52;;;;;;;15.35;5.50;;;;;;;26.19;70.31;101285.54;1649151;85;21121;-73
2022/08/25 10:01:40;;;;;;;;;;;;;;;26.23;70.11;101279.06;1657304;85;21601;-73
2022/08/25 10:04:32;;;;;;;14.98;4.75;;;;;;;26.29;69.96;101267.17;1662420;84;21120;-73
2022/08/25 10:07:28;;;;;;;11.22;4.55;;;;;;;26.36;70.06;101268.47;1646952;85;21065;-73
2022/08/25 10:10:37;;;;;;;16.57;5.28;;;;;;;26.38;69.94;101265.22;1664096;85;21114;-73
2022/08/25 10:13:33;;;;;;;12.98;4.95;;;;;;;26.39;69.81;101256.31;1662585;85;21540;-73
2022/08/25 10:16:32;;;;;;;12.68;4.80;;;;;;;26.39;69.72;101258.96;1647130;85;21148;-73
2022/08/25 10:19:29;;;;;;;11.40;4.70;;;;;;;26.37;69.73;101243.16;1648121;85;21100;-73
2022/08/25 10:22:33;;;;;;;16.57;5.12;;;;;;;26.27;69.50;101226.66;1662780;83;21083;-73
2022/08/25 10:25:27;;;;;;;19.80;4.78;;;;;;;26.36;69.43;101237.49;1675482;83;21044;-75
2022/08/25 10:28:27;;;;;;;16.00;5.28;;;;;;;26.31;68.79;101236.13;1679711;83;21125;-75
2022/08/25 10:31:35;;;;;;;7.17;4.15;;;;;;;26.21;68.91;101231.92;1684098;83;21088;-80
2022/08/25 10:34:48;;;;;;;18.35;4.08;;;;;;;26.23;69.14;101227.36;1683634;83;21123;-80
2022/08/25 10:38:22;;;;;;;15.60;4.05;;;;;;;26.29;69.10;101220.77;1680906;83;21069;-79
2022/08/25 10:41:51;;;;;;;14.93;4.83;;;;;;;26.35;69.00;101215.06;1639787;85;21095;-80
2022/08/25 10:48:27;;;;;;;14.23;3.90;;;;;;;26.41;68.85;101222.57;1683473;83;21072;-78
2022/08/25 10:51:52;;;;;;;12.20;3.67;;;;;;;26.42;68.57;101218.11;1683947;83;21052;-80
2022/08/25 10:55:10;;;;;;;18.85;4.47;;;;;;;26.37;68.54;101221.09;1685404;83;28813;-78
2022/08/25 10:58:22;;;;;;;16.82;4.53;;;;;;;26.34;68.42;101219.52;1681501;83;21114;-79
2022/08/25 11:01:26;;;;;;;12.28;4.22;;;;;;;26.31;68.38;101218.41;1622492;85;21136;-78
2022/08/25 11:04:24;;;;;;;13.35;4.70;;;;;;;26.39;68.40;101209.91;1632788;85;21121;-79
2022/08/25 11:07:23;;;;;;;14.93;4.00;;;;;;;26.43;68.49;101203.89;1600830;85;21084;-78
2022/08/25 11:10:18;;;;;;;16.87;4.53;;;;;;;26.47;68.24;101204.04;1621219;86;21144;-78
2022/08/25 11:13:08;;;;;;;13.00;4.42;;;;;;;26.43;68.16;101199.92;1681155;83;21095;-79
2022/08/25 11:16:04;;;;;;;14.87;4.05;;;;;;;26.45;68.15;101199.33;1686486;83;20964;-79
2022/08/25 11:18:57;;;;;;;18.25;3.90;;;;;;;26.48;68.13;101199.95;1671288;83;22261;-79
2022/08/25 11:22:11;;;;;;;14.78;4.03;;;;;;;26.54;68.03;101195.97;1679671;83;20974;-79
2022/08/25 11:25:12;;;;;;;14.15;4.33;;;;;;;26.60;68.06;101191.06;1684269;83;21040;-80
2022/08/25 11:28:27;;;;;;;13.43;4.42;;;;;;;26.61;67.87;101191.91;1674778;83;22243;-80
2022/08/25 11:31:14;;;;;;;17.98;5.03;;;;;;;26.56;67.74;101197.55;1683260;84;21115;-80
2022/08/25 11:33:59;;;;;;;16.12;4.45;;;;;;;26.57;67.75;101189.11;1683822;83;20992;-79
2022/08/25 11:36:56;;;;;;;12.15;4.33;;;;;;;26.61;67.83;101188.77;1645477;85;21856;-78
2022/08/25 11:40:08;;;;;;;13.55;4.40;;;;;;;26.67;67.74;101182.16;1641048;84;21452;-78
2022/08/25 11:43:17;;;;;;;17.02;4.55;;;;;;;26.70;67.62;101178.80;1652688;83;21624;-78
2022/08/25 11:46:28;;;;;;;13.43;5.08;;;;;;;26.76;67.57;101177.50;1640768;85;21564;-78
2022/08/25 11:49:36;;;;;;;15.72;4.10;;;;;;;26.85;67.57;101176.81;1639843;85;21088;-76
2022/08/25 11:52:41;;;;;;;14.10;3.83;;;;;;;26.97;67.51;101183.88;1640710;85;21114;-77
2022/08/25 11:55:48;;;;;;;10.50;4.43;;;;;;;27.04;67.40;101178.92;1640321;84;21093;-78
2022/08/25 11:58:47;;;;;;;15.55;4.20;;;;;;;27.02;67.36;101177.75;1643840;84;21064;-79
2022/08/25 12:01:56;;;;;;;23.50;3.75;;;;;;;26.99;67.26;101175.33;1642556;84;22270;-78
2022/08/25 12:04:54;;;;;;;16.00;4.25;;;;;;;26.98;67.26;101172.78;1643223;85;21493;-83
2022/08/25 12:11:07;;;;;;;16.82;4.03;;;;;;;26.99;67.08;101162.53;1608426;85;21107;-83
2022/08/25 12:13:54;;;;;;;12.45;4.03;;;;;;;26.99;67.15;101162.05;1643348;85;21108;-85
2022/08/25 12:16:59;;;;;;;16.95;4.53;;;;;;;27.04;67.10;101161.19;1630826;85;21125;-83
2022/08/25 12:19:48;;;;;;;17.67;5.03;;;;;;;27.12;67.06;101156.63;1639538;85;21148;-79
2022/08/25 12:22:38;;;;;;;19.10;4.55;;;;;;;27.17;66.86;101157.11;1644728;85;21159;-74
2022/08/25 12:25:32;;;;;;;15.00;4.33;;;;;;;27.19;66.83;101151.69;1636774;85;21093;-78
2022/08/25 12:28:43;;;;;;;17.40;5.00;;;;;;;27.23;66.81;101156.64;1643775;84;21097;-79
2022/08/25 12:31:55;;;;;;;12.15;4.58;;;;;;;27.26;66.67;101155.56;1607451;86;21155;-79
2022/08/25 12:34:52;;;;;;;19.23;5.05;;;;;;;27.31;66.73;101157.38;1643508;85;21104;-79
2022/08/25 12:38:05;;;;;;;11.35;4.17;;;;;;;27.35;66.62;101149.54;1647006;84;21085;-78
2022/08/25 12:41:07;;;;;;;14.75;4.30;;;;;;;27.38;66.54;101151.95;1647379;84;21597;-78
2022/08/25 12:43:56;;;;;;;12.13;4.08;;;;;;;27.43;66.49;101143.62;1643100;85;21164;-78
2022/08/25 12:46:43;;;;;;;15.28;5.03;;;;;;;27.48;66.47;101147.62;1511847;85;5001341;-78
2022/08/25 12:49:33;;;;;;;18.65;3.98;;;;;;;27.51;66.40;101144.72;1639981;84;21080;-78
2022/08/25 12:52:22;;;;;;;13.32;4.15;;;;;;;27.51;66.31;101144.72;1650644;85;21095;-78
2022/08/25 12:55:10;;;;;;;13.60;4.30;;;;;;;27.47;66.25;101137.95;1633189;86;21113;-78
2022/08/25 12:57:57;;;;;;;17.05;4.15;;;;;;;27.48;66.24;101145.44;1648071;85;21120;-78
2022/08/25 13:01:08;;;;;;;16.65;4.78;;;;;;;27.47;66.19;101140.61;1639835;85;21165;-78
2022/08/25 13:04:17;;;;;;;21.60;4.95;;;;;;;27.49;66.11;101138.69;1641676;85;21080;-78
2022/08/25 13:07:22;;;;;;;20.17;5.00;;;;;;;27.49;66.00;101133.85;1638108;85;21092;-78
2022/08/25 13:10:38;;;;;;;17.75;4.87;;;;;;;27.49;65.92;101129.39;1640165;84;21077;-78
2022/08/25 13:13:50;;;;;;;17.98;4.95;;;;;;;27.49;65.80;101128.54;1638432;84;21156;-79
2022/08/25 13:16:35;;;;;;;17.10;4.83;;;;;;;27.51;65.68;101123.95;1640817;85;21112;-78